Time;durP1;ratioP1;P1;durP2;ratioP2;P2;SDS_P1;SDS_P2;PMS_P1;PMS_P2;Temp;Humidity;BMP_temperature;BMP_pressure;BME280_temperature;BME280_humidity;BME280_pressure;Samples;Min_cycle;Max_cycle;Signal;HPM_P1;HPM_P2
2021/08/14 04:01:44;;;;;;;5.33;4.00;;;16.00;99.90;;;;;;5326439;23;20491;-69
2021/08/14 04:04:11;;;;;;;5.20;4.80;;;16.00;99.90;;;;;;4911306;29;20875;-68
2021/08/14 04:06:37;;;;;;;3.57;3.37;;;16.00;99.90;;;;;;4909552;29;20550;-69
2021/08/14 04:09:04;;;;;;;4.67;3.80;;;16.00;99.90;;;;;;4922316;29;20544;-69
2021/08/14 04:11:30;;;;;;;3.90;3.70;;;16.00;99.90;;;;;;4929223;29;20893;-69
2021/08/14 04:13:57;;;;;;;7.00;4.70;;;16.00;99.90;;;;;;4926895;29;20470;-68
2021/08/14 04:16:24;;;;;;;7.83;4.30;;;16.00;99.90;;;;;;4930521;29;20792;-68
2021/08/14 04:18:52;;;;;;;3.90;3.60;;;16.00;99.90;;;;;;4925316;29;20528;-68
2021/08/14 04:21:18;;;;;;;4.40;4.10;;;16.00;99.90;;;;;;4924883;29;20839;-69
2021/08/14 04:23:45;;;;;;;6.23;4.00;;;16.00;99.90;;;;;;4925917;29;20473;-69
2021/08/14 04:26:11;;;;;;;5.97;4.03;;;16.00;99.90;;;;;;4926179;29;20459;-69
2021/08/14 04:28:38;;;;;;;5.97;5.00;;;16.00;99.90;;;;;;4916675;29;20525;-69
2021/08/14 04:31:05;;;;;;;4.57;4.20;;;16.10;99.90;;;;;;4904966;29;20491;-69
2021/08/14 04:33:31;;;;;;;4.57;3.93;;;16.10;99.90;;;;;;4917943;29;20461;-69
2021/08/14 04:35:59;;;;;;;5.27;3.90;;;16.10;99.90;;;;;;4923783;29;20470;-68
2021/08/14 04:38:26;;;;;;;4.57;4.17;;;16.10;99.90;;;;;;4924612;29;20466;-69
2021/08/14 04:40:52;;;;;;;7.17;4.87;;;16.20;99.90;;;;;;4925463;29;20485;-69
2021/08/14 04:43:19;;;;;;;5.47;3.50;;;16.20;99.90;;;;;;4926513;29;20462;-69
2021/08/14 04:45:46;;;;;;;4.93;4.33;;;16.20;99.90;;;;;;4926810;29;20463;-68
2021/08/14 04:48:12;;;;;;;9.20;4.43;;;16.20;99.90;;;;;;4922496;29;20497;-69
2021/08/14 04:50:39;;;;;;;6.63;4.80;;;16.20;99.90;;;;;;4915886;29;20577;-69
2021/08/14 04:53:07;;;;;;;5.43;4.33;;;16.20;99.90;;;;;;4916246;29;20522;-69
2021/08/14 04:55:34;;;;;;;6.57;4.60;;;16.20;99.90;;;;;;4910347;29;20462;-68
2021/08/14 04:58:00;;;;;;;6.27;4.27;;;16.30;99.90;;;;;;4919829;29;20527;-68
2021/08/14 05:00:27;;;;;;;6.50;4.57;;;16.30;99.90;;;;;;4916646;29;20553;-68
2021/08/14 05:02:53;;;;;;;7.47;4.63;;;16.30;99.90;;;;;;4915551;29;20565;-68
2021/08/14 05:05:20;;;;;;;6.47;5.00;;;16.40;99.90;;;;;;4914077;29;20465;-70
2021/08/14 05:07:47;;;;;;;6.20;5.10;;;16.40;99.90;;;;;;4932290;29;20466;-70
2021/08/14 05:10:15;;;;;;;6.73;4.70;;;16.40;99.90;;;;;;4909269;29;20458;-70
2021/08/14 05:12:42;;;;;;;8.70;5.40;;;16.40;99.90;;;;;;4910631;29;20596;-70
2021/08/14 05:15:09;;;;;;;7.07;4.57;;;16.40;99.90;;;;;;4901927;29;20798;-69
2021/08/14 05:17:36;;;;;;;4.77;4.47;;;16.50;99.90;;;;;;4934762;29;20529;-69
2021/08/14 05:20:02;;;;;;;9.47;4.57;;;16.60;99.90;;;;;;4918712;29;20561;-70
2021/08/14 05:22:29;;;;;;;7.13;5.23;;;16.60;99.90;;;;;;4937002;29;20490;-70
2021/08/14 05:24:56;;;;;;;6.63;4.23;;;16.60;99.90;;;;;;4926650;29;20889;-71
2021/08/14 05:27:24;;;;;;;9.03;4.57;;;16.70;99.90;;;;;;4938134;29;20472;-71
2021/08/14 05:29:50;;;;;;;7.37;3.80;;;16.70;99.90;;;;;;4912686;29;20462;-70
2021/08/14 05:32:17;;;;;;;4.53;4.30;;;16.70;99.90;;;;;;4938221;29;20497;-71
2021/08/14 05:34:44;;;;;;;5.83;4.13;;;16.80;99.90;;;;;;4926749;29;20533;-71
2021/08/14 05:37:10;;;;;;;3.90;3.60;;;16.80;99.90;;;;;;4900935;29;20594;-70
2021/08/14 05:39:38;;;;;;;5.27;4.07;;;16.90;99.90;;;;;;4922292;29;20470;-70
2021/08/14 05:42:05;;;;;;;4.20;3.90;;;17.00;99.90;;;;;;4936719;29;20564;-70
2021/08/14 05:44:33;;;;;;;6.97;3.90;;;17.10;99.90;;;;;;4929306;29;20521;-71
2021/08/14 05:47:00;;;;;;;6.43;3.80;;;17.10;99.90;;;;;;4920441;29;20466;-70
2021/08/14 05:49:26;;;;;;;5.27;4.40;;;17.20;99.90;;;;;;4928809;29;20462;-69
2021/08/14 05:51:53;;;;;;;4.77;3.60;;;17.20;99.90;;;;;;4929722;29;20508;-68
2021/08/14 05:54:19;;;;;;;6.13;3.83;;;17.30;99.90;;;;;;4933207;29;20522;-69
2021/08/14 05:56:46;;;;;;;4.73;3.60;;;17.30;99.90;;;;;;4938037;29;20466;-68
2021/08/14 05:59:13;;;;;;;4.00;3.80;;;17.40;99.90;;;;;;4923229;29;20471;-71
2021/08/14 06:01:41;;;;;;;4.40;4.00;;;17.40;99.90;;;;;;4909245;29;20551;-71
2021/08/14 06:04:08;;;;;;;7.40;3.60;;;17.40;99.90;;;;;;4899963;29;20470;-71
2021/08/14 06:06:34;;;;;;;6.10;3.70;;;17.50;99.90;;;;;;4937372;29;20462;-70
2021/08/14 06:09:01;;;;;;;9.77;4.90;;;17.60;99.90;;;;;;4924953;29;20466;-69
2021/08/14 06:11:29;;;;;;;4.13;3.73;;;17.70;99.90;;;;;;4934111;29;20504;-69
2021/08/14 06:13:56;;;;;;;11.20;3.47;;;17.70;99.90;;;;;;4933321;29;20494;-69
2021/08/14 06:16:22;;;;;;;4.07;3.50;;;17.70;99.90;;;;;;4900183;29;20463;-69
2021/08/14 06:18:50;;;;;;;4.73;3.70;;;17.80;99.90;;;;;;4913111;29;20476;-69
2021/08/14 06:21:17;;;;;;;4.93;3.47;;;17.90;99.90;;;;;;4920779;29;20486;-69
2021/08/14 06:23:44;;;;;;;4.43;3.90;;;18.00;99.90;;;;;;4903856;29;20519;-69
2021/08/14 06:26:10;;;;;;;4.40;3.93;;;18.00;99.90;;;;;;4935916;29;20473;-69
2021/08/14 06:28:37;;;;;;;6.00;3.40;;;18.10;99.90;;;;;;4918523;29;20478;-70
2021/08/14 06:31:04;;;;;;;5.87;3.47;;;18.20;99.90;;;;;;4934219;29;21035;-69
2021/08/14 06:33:30;;;;;;;9.40;3.90;;;18.30;99.90;;;;;;4913898;29;20553;-69
2021/08/14 06:35:58;;;;;;;7.93;3.73;;;18.30;99.90;;;;;;4936388;29;20969;-68
2021/08/14 06:38:25;;;;;;;5.97;3.33;;;18.40;99.90;;;;;;4922042;29;20466;-68
2021/08/14 06:40:52;;;;;;;7.10;3.67;;;18.50;99.90;;;;;;4936851;29;20521;-68
2021/08/14 06:43:18;;;;;;;6.90;3.47;;;18.60;99.90;;;;;;4919321;29;20927;-68
2021/08/14 06:45:45;;;;;;;7.57;3.43;;;18.70;99.90;;;;;;4917915;29;20467;-68
2021/08/14 06:48:12;;;;;;;6.77;3.57;;;18.80;99.90;;;;;;4931113;29;20465;-70
2021/08/14 06:50:38;;;;;;;6.90;4.10;;;18.80;99.90;;;;;;4916314;29;20467;-70
2021/08/14 06:53:06;;;;;;;6.13;4.07;;;18.80;99.90;;;;;;4917871;29;20309;-70
2021/08/14 06:55:33;;;;;;;6.33;4.03;;;18.90;99.90;;;;;;4935949;29;20532;-70
2021/08/14 06:57:59;;;;;;;5.73;3.80;;;19.00;99.90;;;;;;4937697;29;20572;-71
2021/08/14 07:00:26;;;;;;;5.67;3.30;;;19.20;99.90;;;;;;4934968;29;20606;-71
2021/08/14 07:02:53;;;;;;;7.80;3.73;;;19.20;99.90;;;;;;4922264;29;20831;-70
2021/08/14 07:05:20;;;;;;;4.80;3.50;;;19.20;99.90;;;;;;4922942;29;20561;-70
2021/08/14 07:07:46;;;;;;;4.73;3.40;;;19.40;99.90;;;;;;4919161;29;20466;-69
2021/08/14 07:10:15;;;;;;;5.80;2.87;;;19.50;99.90;;;;;;4914442;29;20528;-70
2021/08/14 07:12:43;;;;;;;5.83;3.00;;;19.20;99.90;;;;;;4906209;29;20490;-70
2021/08/14 07:15:10;;;;;;;3.87;3.57;;;19.60;99.90;;;;;;4922347;29;20462;-72
2021/08/14 07:17:37;;;;;;;4.27;3.90;;;19.60;99.90;;;;;;4928833;29;20492;-70
2021/08/14 07:20:04;;;;;;;4.60;3.40;;;19.60;99.90;;;;;;4937190;29;20464;-71
2021/08/14 07:22:31;;;;;;;3.23;3.00;;;19.60;99.90;;;;;;4937106;29;20845;-70
2021/08/14 07:24:58;;;;;;;6.40;2.97;;;19.70;99.90;;;;;;4937722;29;20473;-71
2021/08/14 07:27:26;;;;;;;3.70;2.80;;;20.00;99.90;;;;;;4928792;29;20874;-70
2021/08/14 07:29:52;;;;;;;3.63;3.17;;;19.90;99.90;;;;;;4925677;29;20465;-70
2021/08/14 07:32:19;;;;;;;3.37;3.10;;;20.00;99.90;;;;;;4924529;29;20474;-70
2021/08/14 07:34:46;;;;;;;3.10;2.90;;;20.80;99.90;;;;;;4917655;29;20545;-70
2021/08/14 07:37:12;;;;;;;3.70;2.93;;;21.50;99.90;;;;;;4917378;29;20541;-68
2021/08/14 07:39:39;;;;;;;6.33;2.80;;;22.00;99.90;;;;;;4924114;29;20465;-68
2021/08/14 07:42:06;;;;;;;4.83;3.20;;;22.20;99.90;;;;;;4931468;29;20487;-70
2021/08/14 07:44:34;;;;;;;2.37;2.23;;;22.50;99.90;;;;;;4919980;29;20827;-69
2021/08/14 07:47:00;;;;;;;8.47;3.93;;;22.30;99.90;;;;;;4907806;29;20457;-69
2021/08/14 07:49:27;;;;;;;4.10;2.60;;;22.20;99.90;;;;;;4918143;29;20469;-70
2021/08/14 07:51:54;;;;;;;6.23;3.03;;;22.50;99.90;;;;;;4917852;29;20569;-70
2021/08/14 07:54:20;;;;;;;3.00;2.30;;;22.50;99.90;;;;;;4916156;29;20470;-70
2021/08/14 07:56:47;;;;;;;3.80;3.33;;;22.20;99.90;;;;;;4929453;29;20503;-70
2021/08/14 07:59:13;;;;;;;6.03;3.20;;;22.20;99.90;;;;;;4915847;29;20470;-70
2021/08/14 08:01:41;;;;;;;3.97;2.90;;;21.90;99.90;;;;;;4900828;29;20499;-73
2021/08/14 08:04:08;;;;;;;6.47;3.10;;;21.80;99.90;;;;;;4901974;29;20463;-70
2021/08/14 08:06:35;;;;;;;3.23;2.80;;;21.80;99.90;;;;;;4910623;29;20542;-69
2021/08/14 08:09:01;;;;;;;4.57;3.37;;;21.60;99.90;;;;;;4925753;29;20466;-70
2021/08/14 08:11:28;;;;;;;2.80;2.70;;;21.50;99.90;;;;;;4917583;29;21013;-70
2021/08/14 08:13:54;;;;;;;3.57;2.60;;;21.40;99.90;;;;;;4922109;29;20485;-69
2021/08/14 08:16:21;;;;;;;3.07;2.77;;;21.40;99.90;;;;;;4915807;29;20494;-69
2021/08/14 08:18:49;;;;;;;4.83;2.33;;;21.30;99.90;;;;;;4914723;29;20466;-69
2021/08/14 08:21:16;;;;;;;4.10;3.17;;;21.20;99.90;;;;;;4907815;29;20648;-70
2021/08/14 08:23:42;;;;;;;4.13;3.10;;;21.10;99.90;;;;;;4913585;29;20513;-69
2021/08/14 08:26:09;;;;;;;5.20;3.20;;;21.20;99.90;;;;;;4908799;29;20608;-69
2021/08/14 08:28:36;;;;;;;6.90;3.03;;;21.20;99.90;;;;;;4913889;29;20951;-69
2021/08/14 08:31:02;;;;;;;3.70;3.13;;;21.20;99.90;;;;;;4924294;29;20490;-70
2021/08/14 08:33:29;;;;;;;5.97;3.47;;;21.30;99.90;;;;;;4922229;29;20498;-70
2021/08/14 08:35:57;;;;;;;4.60;4.10;;;21.30;99.90;;;;;;4935324;29;20473;-69
2021/08/14 08:38:25;;;;;;;4.17;3.20;;;21.40;99.90;;;;;;4916620;29;20467;-70
2021/08/14 08:40:51;;;;;;;6.10;2.67;;;21.40;99.90;;;;;;4914254;29;20482;-70
2021/08/14 08:43:18;;;;;;;2.80;2.60;;;21.40;99.90;;;;;;4915733;29;20481;-68
2021/08/14 08:45:45;;;;;;;3.97;2.60;;;21.50;99.90;;;;;;4905641;29;20467;-70
2021/08/14 08:48:18;;;;;;;3.73;2.77;;;21.50;99.90;;;;;;4908838;29;20584;-69
2021/08/14 08:50:47;;;;;;;3.67;2.73;;;21.50;99.90;;;;;;4914736;29;20566;-69
2021/08/14 08:53:16;;;;;;;3.47;3.00;;;21.60;99.90;;;;;;4922962;29;21037;-69
2021/08/14 08:55:42;;;;;;;4.17;2.50;;;21.80;99.90;;;;;;4908790;29;20515;-69
2021/08/14 08:58:09;;;;;;;2.60;1.93;;;21.90;99.90;;;;;;4897885;29;20571;-68
2021/08/14 09:00:36;;;;;;;4.00;2.87;;;21.90;99.90;;;;;;4922384;29;20487;-69
2021/08/14 09:03:08;;;;;;;2.23;2.10;;;21.90;99.90;;;;;;4910649;29;20518;-70
2021/08/14 09:05:46;;;;;;;3.10;2.90;;;22.00;99.90;;;;;;4918490;29;20530;-70
2021/08/14 09:08:15;;;;;;;5.17;3.40;;;22.00;99.90;;;;;;4915254;29;20458;-69
2021/08/14 09:10:42;;;;;;;6.17;2.27;;;22.00;99.90;;;;;;4916734;29;20541;-69
2021/08/14 09:13:13;;;;;;;8.13;2.50;;;22.10;99.90;;;;;;4911491;29;20549;-68
2021/08/14 09:15:40;;;;;;;8.80;2.40;;;22.00;99.90;;;;;;4914216;29;20458;-70
2021/08/14 09:18:08;;;;;;;3.90;2.50;;;22.00;99.90;;;;;;4915188;29;20467;-68
2021/08/14 09:20:46;;;;;;;2.23;2.10;;;22.00;99.90;;;;;;4914105;29;20486;-70
2021/08/14 09:23:13;;;;;;;4.53;2.30;;;22.20;99.90;;;;;;4910312;29;20514;-69
2021/08/14 09:25:43;;;;;;;3.53;2.57;;;22.30;99.90;;;;;;4905673;29;20955;-70
2021/08/14 09:28:11;;;;;;;4.97;2.63;;;22.40;99.90;;;;;;4896865;29;20937;-69
2021/08/14 09:30:45;;;;;;;4.80;2.70;;;22.40;99.90;;;;;;4910636;29;20490;-69
2021/08/14 09:33:14;;;;;;;6.13;2.83;;;22.60;99.90;;;;;;4915646;29;21017;-69
2021/08/14 09:35:42;;;;;;;4.60;3.10;;;22.60;99.90;;;;;;4905484;29;20459;-70
2021/08/14 09:38:11;;;;;;;2.73;2.40;;;22.80;99.90;;;;;;4915816;29;20549;-69
2021/08/14 09:40:39;;;;;;;4.67;2.50;;;23.00;99.90;;;;;;4913009;29;20494;-70
2021/08/14 09:43:08;;;;;;;2.93;2.40;;;23.10;99.90;;;;;;4915517;29;20819;-70
2021/08/14 09:45:35;;;;;;;4.53;2.70;;;23.10;99.90;;;;;;4913631;29;21003;-70
2021/08/14 09:48:16;;;;;;;4.00;3.20;;;23.20;99.90;;;;;;4923293;29;20472;-70
2021/08/14 09:50:43;;;;;;;2.53;2.33;;;23.40;99.90;;;;;;4921598;29;20560;-70
2021/08/14 09:53:11;;;;;;;3.90;2.60;;;23.60;99.90;;;;;;4928271;29;20490;-68
2021/08/14 09:55:39;;;;;;;3.90;2.57;;;23.70;99.90;;;;;;4914698;29;20558;-69
2021/08/14 09:58:10;;;;;;;4.13;2.40;;;23.70;99.90;;;;;;4914647;29;20486;-70
2021/08/14 10:00:39;;;;;;;2.63;2.53;;;23.90;99.90;;;;;;4911939;29;20521;-70
2021/08/14 10:03:06;;;;;;;3.23;2.77;;;24.00;99.90;;;;;;4913694;29;20455;-69
2021/08/14 10:05:34;;;;;;;2.83;2.63;;;24.10;99.90;;;;;;4914734;29;20855;-70
2021/08/14 10:08:02;;;;;;;2.33;2.13;;;24.10;99.90;;;;;;4921922;29;20976;-69
2021/08/14 10:10:29;;;;;;;3.80;3.07;;;24.10;99.90;;;;;;4910243;29;20483;-70
2021/08/14 10:12:58;;;;;;;2.77;2.57;;;24.10;99.90;;;;;;4914131;29;20482;-69
2021/08/14 10:15:26;;;;;;;3.00;2.70;;;24.20;99.90;;;;;;4918342;29;20470;-70
2021/08/14 10:17:53;;;;;;;2.37;2.17;;;24.10;99.90;;;;;;4924150;29;20508;-69
2021/08/14 10:20:20;;;;;;;2.67;2.53;;;24.20;99.90;;;;;;4919613;29;20560;-70
2021/08/14 10:22:47;;;;;;;2.10;2.00;;;24.30;99.90;;;;;;4924119;29;20459;-70
2021/08/14 10:25:18;;;;;;;3.27;2.60;;;24.40;99.90;;;;;;4910813;29;20467;-69
2021/08/14 10:27:55;;;;;;;4.47;2.80;;;24.40;99.90;;;;;;4930694;29;20954;-68
2021/08/14 10:30:41;;;;;;;3.87;2.80;;;24.40;99.90;;;;;;4927996;29;20458;-70
2021/08/14 10:33:30;;;;;;;2.53;2.40;;;24.50;99.90;;;;;;4928892;29;20483;-69
2021/08/14 10:35:58;;;;;;;3.80;2.27;;;24.30;99.90;;;;;;4917954;29;20459;-70
2021/08/14 10:38:46;;;;;;;4.00;2.70;;;24.00;99.90;;;;;;4908623;29;20511;-70
2021/08/14 10:41:14;;;;;;;3.23;2.40;;;23.90;99.90;;;;;;4905650;29;20490;-69
2021/08/14 10:43:58;;;;;;;3.47;2.50;;;24.00;99.90;;;;;;4918431;29;20554;-69
2021/08/14 10:46:45;;;;;;;4.33;2.50;;;24.10;99.90;;;;;;4909001;29;20557;-70
2021/08/14 10:49:14;;;;;;;5.67;2.80;;;24.20;99.90;;;;;;4907856;29;20522;-70
2021/08/14 10:52:12;;;;;;;3.67;2.57;;;24.30;99.90;;;;;;4917643;29;20886;-70
2021/08/14 10:55:02;;;;;;;5.90;3.20;;;24.50;99.90;;;;;;4906921;29;21045;-69
2021/08/14 10:57:47;;;;;;;4.33;3.00;;;24.60;99.90;;;;;;4917610;29;20462;-70
2021/08/14 11:00:29;;;;;;;5.40;2.93;;;24.60;99.90;;;;;;4917182;29;20473;-71
2021/08/14 11:03:08;;;;;;;2.60;2.50;;;24.60;99.90;;;;;;4917014;29;20981;-70
2021/08/14 11:05:37;;;;;;;4.70;3.07;;;24.60;99.90;;;;;;4916853;29;20462;-69
2021/08/14 11:08:21;;;;;;;3.23;2.93;;;24.60;99.90;;;;;;4917665;29;20466;-70
2021/08/14 11:10:48;;;;;;;5.67;4.27;;;24.60;99.90;;;;;;4916910;29;20489;-70
2021/08/14 11:13:41;;;;;;;4.53;4.23;;;24.50;99.90;;;;;;4911973;29;20820;-70
2021/08/14 11:16:07;;;;;;;19.93;5.70;;;24.50;99.90;;;;;;4917137;29;20471;-70
2021/08/14 11:18:55;;;;;;;5.40;3.27;;;24.60;99.90;;;;;;4916858;29;20537;-70
2021/08/14 11:21:42;;;;;;;2.80;2.70;;;24.70;99.90;;;;;;4916481;29;20819;-70
2021/08/14 11:24:09;;;;;;;3.57;2.90;;;24.60;99.90;;;;;;4915817;29;20518;-68
2021/08/14 11:26:38;;;;;;;5.07;3.40;;;24.50;99.90;;;;;;4916980;29;20466;-70
2021/08/14 11:29:06;;;;;;;3.13;2.93;;;24.40;99.90;;;;;;4916820;29;20984;-69
2021/08/14 11:31:33;;;;;;;4.30;3.90;;;24.50;99.90;;;;;;4916816;29;21009;-70
2021/08/14 11:34:10;;;;;;;4.07;3.53;;;24.70;99.90;;;;;;4915821;29;20493;-70
2021/08/14 11:36:39;;;;;;;3.13;2.87;;;24.60;99.90;;;;;;4898581;29;20457;-70
2021/08/14 11:39:06;;;;;;;6.83;4.00;;;24.50;99.90;;;;;;4902878;29;20793;-70
2021/08/14 11:41:32;;;;;;;4.17;3.30;;;24.60;99.90;;;;;;4916674;29;20848;-70
2021/08/14 11:44:04;;;;;;;3.40;3.20;;;24.70;99.90;;;;;;4916293;29;20454;-70
2021/08/14 11:46:32;;;;;;;4.03;3.20;;;24.90;99.90;;;;;;4916530;29;20458;-70
2021/08/14 11:49:03;;;;;;;7.63;2.87;;;25.10;99.90;;;;;;4915798;29;20927;-69
2021/08/14 11:51:32;;;;;;;3.00;2.80;;;25.30;99.90;;;;;;4916468;29;20486;-70
2021/08/14 11:54:06;;;;;;;7.47;3.43;;;25.40;99.90;;;;;;4915944;29;20493;-73
2021/08/14 11:56:34;;;;;;;3.40;3.10;;;25.40;99.90;;;;;;4916435;29;20549;-74
2021/08/14 11:59:01;;;;;;;3.63;3.20;;;25.50;99.90;;;;;;4916213;29;20827;-70
2021/08/14 12:01:27;;;;;;;2.83;2.63;;;25.60;99.90;;;;;;4908613;29;20519;-69
2021/08/14 12:03:55;;;;;;;3.27;3.10;;;25.70;99.90;;;;;;4896986;29;20511;-69
2021/08/14 12:06:24;;;;;;;3.70;3.37;;;25.60;99.90;;;;;;4907395;29;20474;-69
2021/08/14 12:08:51;;;;;;;3.80;3.17;;;25.60;99.90;;;;;;4916051;29;20870;-69
2021/08/14 12:11:23;;;;;;;4.83;3.67;;;25.50;99.90;;;;;;4916036;29;20490;-69
2021/08/14 12:14:10;;;;;;;3.73;3.27;;;25.60;99.90;;;;;;4910109;29;20478;-69
2021/08/14 12:16:40;;;;;;;3.27;2.73;;;25.60;99.90;;;;;;4916270;29;21015;-69
2021/08/14 12:19:13;;;;;;;5.50;3.00;;;25.70;99.90;;;;;;4915986;29;20533;-69
2021/08/14 12:21:42;;;;;;;3.80;3.00;;;25.70;99.90;;;;;;4916607;29;20553;-69
2021/08/14 12:24:09;;;;;;;2.83;2.73;;;25.70;99.90;;;;;;4915329;29;20462;-69
2021/08/14 12:26:36;;;;;;;3.00;2.80;;;25.70;99.90;;;;;;4916485;29;20467;-69
2021/08/14 12:29:05;;;;;;;2.97;2.70;;;25.60;99.90;;;;;;4916382;29;20562;-67
2021/08/14 12:31:43;;;;;;;3.73;2.90;;;25.70;99.90;;;;;;4915395;29;20494;-67
2021/08/14 12:34:22;;;;;;;3.30;3.10;;;25.70;99.90;;;;;;4903573;29;20491;-69
2021/08/14 12:37:05;;;;;;;4.60;3.50;;;25.70;99.90;;;;;;4897195;29;20471;-67
2021/08/14 12:39:51;;;;;;;4.33;2.73;;;25.60;99.90;;;;;;4899945;29;20494;-66
2021/08/14 12:42:20;;;;;;;3.30;2.80;;;25.60;99.90;;;;;;4916338;29;20491;-69
2021/08/14 12:44:47;;;;;;;4.00;2.90;;;25.60;99.90;;;;;;4915572;29;20464;-69
2021/08/14 12:47:13;;;;;;;3.30;3.00;;;25.60;99.90;;;;;;4916103;29;20474;-69
2021/08/14 12:49:40;;;;;;;3.10;2.90;;;25.50;99.90;;;;;;4915168;29;20471;-68
2021/08/14 12:52:10;;;;;;;3.53;2.37;;;25.50;99.90;;;;;;4915596;29;20550;-69
2021/08/14 12:54:39;;;;;;;3.80;2.40;;;25.60;99.90;;;;;;4914931;29;20554;-67
2021/08/14 12:57:08;;;;;;;3.43;3.20;;;25.80;99.90;;;;;;4915451;29;20510;-67
2021/08/14 12:59:35;;;;;;;2.87;2.77;;;25.90;99.90;;;;;;4915798;29;20480;-67
2021/08/14 13:02:04;;;;;;;3.10;2.90;;;26.00;99.90;;;;;;4916291;29;20528;-67
2021/08/14 13:04:32;;;;;;;3.40;2.80;;;26.10;99.90;;;;;;4915680;29;20485;-67
2021/08/14 13:06:58;;;;;;;2.73;2.53;;;26.00;99.90;;;;;;4915825;29;20470;-67
2021/08/14 13:09:27;;;;;;;3.10;2.87;;;25.90;99.90;;;;;;4915146;29;20518;-67
2021/08/14 13:11:55;;;;;;;2.97;2.80;;;25.80;99.90;;;;;;4916115;29;21035;-67
2021/08/14 13:14:23;;;;;;;2.87;2.20;;;25.90;99.90;;;;;;4914388;29;20494;-67
2021/08/14 13:16:50;;;;;;;3.70;3.10;;;25.90;99.90;;;;;;4915628;29;20530;-67
2021/08/14 13:19:17;;;;;;;4.80;2.90;;;25.80;99.90;;;;;;4915120;29;20534;-68
2021/08/14 13:21:43;;;;;;;4.37;2.67;;;25.80;99.90;;;;;;4915506;29;20494;-67
2021/08/14 13:24:10;;;;;;;2.53;2.43;;;25.90;99.90;;;;;;4910757;29;20570;-67
2021/08/14 13:26:38;;;;;;;4.37;2.63;;;26.00;99.90;;;;;;4915491;29;20477;-66
2021/08/14 13:29:10;;;;;;;3.97;3.17;;;26.00;99.90;;;;;;4915584;29;20836;-67
2021/08/14 13:31:38;;;;;;;3.20;2.50;;;26.00;99.90;;;;;;4915373;29;20486;-67
2021/08/14 13:34:05;;;;;;;3.73;3.20;;;26.00;99.90;;;;;;4914906;29;20549;-66
2021/08/14 13:36:32;;;;;;;2.80;2.60;;;26.00;99.90;;;;;;4915736;29;20553;-66
2021/08/14 13:38:58;;;;;;;3.87;2.60;;;26.00;99.90;;;;;;4900379;29;20968;-67
2021/08/14 13:41:25;;;;;;;4.10;2.80;;;25.90;99.90;;;;;;4896809;29;20491;-67
2021/08/14 13:43:53;;;;;;;3.30;3.00;;;25.90;99.90;;;;;;4899661;29;20479;-67
2021/08/14 13:46:20;;;;;;;4.67;2.80;;;25.90;99.90;;;;;;4911705;29;20485;-66
2021/08/14 13:48:47;;;;;;;2.53;2.47;;;25.80;99.90;;;;;;4918255;29;20578;-67
2021/08/14 13:51:15;;;;;;;4.00;2.90;;;25.80;99.90;;;;;;4918859;29;20490;-68
2021/08/14 13:53:41;;;;;;;3.07;2.83;;;25.90;99.90;;;;;;4917869;29;20835;-68
2021/08/14 13:56:08;;;;;;;4.93;2.10;;;25.90;99.90;;;;;;4918558;29;21004;-67
2021/08/14 13:58:34;;;;;;;2.87;2.60;;;25.80;99.90;;;;;;4918679;29;20463;-67
2021/08/14 14:01:02;;;;;;;2.90;2.70;;;25.70;99.90;;;;;;4914279;29;20499;-69
2021/08/14 14:03:29;;;;;;;2.57;2.17;;;25.70;99.90;;;;;;4899636;29;20463;-69
2021/08/14 14:05:56;;;;;;;3.07;2.90;;;25.60;99.90;;;;;;4912881;29;21018;-69
2021/08/14 14:08:22;;;;;;;2.67;2.57;;;25.60;99.90;;;;;;4918000;29;20466;-67
2021/08/14 14:10:49;;;;;;;4.77;3.00;;;25.60;99.90;;;;;;4918104;29;20537;-67
2021/08/14 14:13:16;;;;;;;3.10;3.00;;;25.50;99.90;;;;;;4918328;29;20474;-67
2021/08/14 14:15:43;;;;;;;2.97;2.87;;;25.50;99.90;;;;;;4917855;29;20943;-67
2021/08/14 14:18:11;;;;;;;3.50;3.20;;;25.30;99.90;;;;;;4917191;29;20590;-68
2021/08/14 14:20:38;;;;;;;3.03;2.63;;;25.20;99.90;;;;;;4917021;29;20534;-66
2021/08/14 14:23:06;;;;;;;2.30;2.20;;;25.10;99.90;;;;;;4917514;29;20505;-66
2021/08/14 14:25:32;;;;;;;3.17;2.50;;;25.10;99.90;;;;;;4917067;29;20469;-67
2021/08/14 14:27:59;;;;;;;2.57;2.47;;;25.20;99.90;;;;;;4918372;29;20517;-66
2021/08/14 14:30:25;;;;;;;2.83;2.63;;;25.30;99.90;;;;;;4917934;29;20474;-67
2021/08/14 14:32:52;;;;;;;3.10;2.90;;;25.30;99.90;;;;;;4917423;29;20478;-66
2021/08/14 14:35:20;;;;;;;2.97;2.77;;;25.30;99.90;;;;;;4917094;29;20486;-67
2021/08/14 14:37:47;;;;;;;2.60;2.50;;;25.30;99.90;;;;;;4912749;29;20469;-67
2021/08/14 14:40:13;;;;;;;3.37;3.07;;;25.30;99.90;;;;;;4917390;29;20520;-67
2021/08/14 14:42:40;;;;;;;3.50;3.10;;;25.20;99.90;;;;;;4917608;29;20476;-66
2021/08/14 14:45:07;;;;;;;4.03;3.20;;;25.30;99.90;;;;;;4918260;29;20528;-66
2021/08/14 14:47:34;;;;;;;5.20;2.67;;;25.30;99.90;;;;;;4917952;29;20529;-66
2021/08/14 14:50:01;;;;;;;3.60;3.13;;;25.30;99.90;;;;;;4917314;29;20462;-66
2021/08/14 14:52:29;;;;;;;2.77;2.67;;;25.30;99.90;;;;;;4906507;29;20502;-67
2021/08/14 14:54:55;;;;;;;2.83;2.60;;;25.40;99.90;;;;;;4916434;29;20557;-68
2021/08/14 14:57:22;;;;;;;3.43;3.13;;;25.40;99.90;;;;;;4916120;29;20479;-67
2021/08/14 14:59:49;;;;;;;3.10;3.00;;;25.30;99.90;;;;;;4916874;29;20542;-67
2021/08/14 15:02:15;;;;;;;2.80;2.60;;;25.40;99.90;;;;;;4916877;29;21074;-67
2021/08/14 15:04:42;;;;;;;3.00;2.90;;;25.30;99.90;;;;;;4914052;29;20963;-68
2021/08/14 15:07:09;;;;;;;5.43;3.07;;;25.40;99.90;;;;;;4932026;29;20939;-66
2021/08/14 15:09:37;;;;;;;4.37;3.00;;;25.30;99.90;;;;;;4924015;29;20938;-67
2021/08/14 15:12:06;;;;;;;8.17;2.70;;;25.30;99.90;;;;;;4932906;29;20474;-67
2021/08/14 15:14:33;;;;;;;2.57;2.47;;;25.30;99.90;;;;;;4917160;29;20564;-67
2021/08/14 15:16:59;;;;;;;2.83;2.63;;;25.30;99.90;;;;;;4917405;29;20546;-66
2021/08/14 15:19:26;;;;;;;4.23;2.33;;;25.30;99.90;;;;;;4916971;29;20760;-70
2021/08/14 15:21:53;;;;;;;3.57;3.27;;;25.40;99.90;;;;;;4916671;29;20971;-68
2021/08/14 15:24:19;;;;;;;4.30;3.20;;;25.50;99.90;;;;;;4913154;29;20882;-68
2021/08/14 15:26:47;;;;;;;3.20;2.90;;;25.60;99.90;;;;;;4917464;29;20550;-67
2021/08/14 15:29:14;;;;;;;5.13;3.47;;;25.60;99.90;;;;;;4899256;29;20828;-68
2021/08/14 15:31:41;;;;;;;3.60;3.07;;;25.60;99.90;;;;;;4914767;29;20553;-68
2021/08/14 15:34:08;;;;;;;2.80;2.70;;;25.60;99.90;;;;;;4915880;29;20458;-68
2021/08/14 15:36:34;;;;;;;3.93;3.63;;;25.60;99.90;;;;;;4922291;29;20465;-68
2021/08/14 15:39:03;;;;;;;3.30;3.00;;;25.50;99.90;;;;;;4920216;29;21003;-69
2021/08/14 15:41:30;;;;;;;2.73;2.73;;;25.50;99.90;;;;;;4916328;29;20538;-69
2021/08/14 15:43:58;;;;;;;4.30;3.07;;;25.50;99.90;;;;;;4916056;29;20479;-67
2021/08/14 15:46:25;;;;;;;3.00;2.80;;;25.60;99.90;;;;;;4916565;29;20502;-68
2021/08/14 15:48:51;;;;;;;4.87;4.50;;;25.60;99.90;;;;;;4916013;29;20467;-69
2021/08/14 15:51:18;;;;;;;4.07;2.93;;;25.50;99.90;;;;;;4916717;29;20483;-69
2021/08/14 15:53:45;;;;;;;2.93;2.73;;;25.30;99.90;;;;;;4915471;29;21023;-69
2021/08/14 15:56:11;;;;;;;3.47;3.17;;;25.30;99.90;;;;;;4916395;29;20490;-69
2021/08/14 15:58:38;;;;;;;3.07;2.77;;;25.30;99.90;;;;;;4916274;29;20878;-67
2021/08/14 16:01:06;;;;;;;3.30;3.03;;;25.30;99.90;;;;;;4918317;29;20578;-68
2021/08/14 16:03:33;;;;;;;3.93;3.30;;;25.30;99.90;;;;;;4915106;29;20470;-69
2021/08/14 16:06:00;;;;;;;3.77;3.43;;;25.20;99.90;;;;;;4908274;29;20463;-68
2021/08/14 16:08:27;;;;;;;3.73;3.40;;;25.10;99.90;;;;;;4926908;29;20557;-69
2021/08/14 16:10:53;;;;;;;3.90;3.50;;;25.00;99.90;;;;;;4897238;29;20491;-71
2021/08/14 16:13:20;;;;;;;11.40;3.50;;;25.00;99.90;;;;;;4925283;29;20475;-68
2021/08/14 16:15:47;;;;;;;4.00;3.00;;;25.00;99.90;;;;;;4907556;29;20491;-68
2021/08/14 16:18:16;;;;;;;5.97;3.63;;;25.00;99.90;;;;;;4909614;29;20466;-68
2021/08/14 16:20:43;;;;;;;3.67;2.77;;;25.00;99.90;;;;;;4911357;29;20490;-68
2021/08/14 16:23:10;;;;;;;4.23;3.67;;;24.90;99.90;;;;;;4921120;29;20466;-69
2021/08/14 16:25:37;;;;;;;4.87;3.27;;;24.90;99.90;;;;;;4910658;29;20463;-69
2021/08/14 16:28:04;;;;;;;7.40;3.57;;;25.00;99.90;;;;;;4912042;29;20478;-70
2021/08/14 16:30:30;;;;;;;3.63;3.00;;;25.20;99.90;;;;;;4915840;29;20759;-70
2021/08/14 16:32:57;;;;;;;3.30;3.10;;;25.20;99.90;;;;;;4916104;29;20466;-70
2021/08/14 16:35:25;;;;;;;2.90;2.70;;;25.10;99.90;;;;;;4915010;29;20987;-68
2021/08/14 16:37:52;;;;;;;3.70;3.00;;;25.00;99.90;;;;;;4915979;29;20525;-68
2021/08/14 16:40:18;;;;;;;2.60;2.50;;;24.80;99.90;;;;;;4915041;29;20976;-69
2021/08/14 16:42:48;;;;;;;3.80;3.60;;;24.70;99.90;;;;;;4915939;29;21011;-69
2021/08/14 16:45:16;;;;;;;3.40;3.10;;;24.70;99.90;;;;;;4914746;29;20466;-68
2021/08/14 16:47:43;;;;;;;3.70;3.50;;;24.60;99.90;;;;;;4922171;29;20918;-70
2021/08/14 16:50:10;;;;;;;4.20;3.80;;;24.50;99.90;;;;;;4918497;29;20614;-69
2021/08/14 16:52:39;;;;;;;5.37;3.67;;;24.40;99.90;;;;;;4916834;29;20466;-69